createdAt,value
2023-05-17T00:00:33.408Z,1.05
2023-05-17T00:01:35.807Z,1.42
2023-05-17T00:02:38.774Z,1.67
2023-05-17T00:03:40.661Z,2.28
2023-05-17T00:04:45.084Z,1.98
2023-05-17T00:05:47.022Z,1.40
2023-05-17T00:06:50.065Z,1.55
2023-05-17T00:07:51.998Z,1.23
2023-05-17T00:08:54.848Z,1.80
2023-05-17T00:09:58.272Z,1.63
2023-05-17T00:11:01.610Z,1.30
2023-05-17T00:12:03.835Z,1.40
2023-05-17T00:13:06.669Z,1.63
2023-05-17T00:14:08.493Z,1.65
2023-05-17T00:15:11.891Z,2.15
2023-05-17T00:16:13.762Z,1.75
2023-05-17T00:17:16.802Z,1.10
2023-05-17T00:18:19.110Z,1.10
2023-05-17T00:19:22.272Z,1.10
2023-05-17T00:20:24.337Z,2.38
2023-05-17T00:21:27.237Z,1.83
2023-05-17T00:22:29.102Z,1.50
2023-05-17T00:23:32.292Z,1.52
2023-05-17T00:24:34.184Z,1.17
2023-05-17T00:25:38.349Z,1.25
2023-05-17T00:26:40.245Z,1.40
2023-05-17T00:27:43.044Z,1.77
2023-05-17T00:28:44.935Z,1.55
2023-05-17T00:29:47.950Z,1.38
2023-05-17T00:30:49.800Z,2.08
2023-05-17T00:31:52.636Z,1.40
2023-05-17T00:32:54.631Z,1.75
2023-05-17T00:33:57.600Z,1.00
2023-05-17T00:34:59.832Z,1.58
2023-05-17T00:36:02.771Z,1.27
2023-05-17T00:37:04.860Z,1.10
2023-05-17T00:38:07.730Z,1.55
2023-05-17T00:39:09.929Z,1.20
2023-05-17T00:40:14.435Z,1.92
2023-05-17T00:41:18.160Z,1.60
2023-05-17T00:42:21.033Z,1.90
2023-05-17T00:43:22.902Z,1.65
2023-05-17T00:44:25.703Z,2.00
2023-05-17T00:45:27.881Z,1.80
2023-05-17T00:46:33.689Z,1.70
2023-05-17T00:47:35.588Z,1.85
2023-05-17T00:48:38.713Z,1.60
2023-05-17T00:49:40.809Z,1.50
2023-05-17T00:50:43.788Z,1.40
2023-05-17T00:51:46.376Z,1.50
2023-05-17T00:52:49.597Z,1.40
2023-05-17T00:53:51.972Z,1.83
2023-05-17T00:54:54.856Z,1.85
2023-05-17T00:55:56.763Z,1.23
2023-05-17T00:57:01.319Z,1.40
2023-05-17T00:58:03.397Z,1.60
2023-05-17T00:59:07.581Z,1.52
2023-05-17T01:00:10.379Z,1.90
2023-05-17T01:01:13.324Z,1.25
2023-05-17T01:02:15.643Z,1.75
2023-05-17T01:03:18.799Z,1.98
2023-05-17T01:04:21.178Z,1.60
2023-05-17T01:05:24.180Z,1.77
2023-05-17T01:06:26.183Z,1.60
2023-05-17T01:07:29.116Z,1.35
2023-05-17T01:08:31.247Z,1.10
2023-05-17T01:09:34.453Z,1.35
2023-05-17T01:10:44.213Z,1.40
2023-05-17T01:11:55.756Z,1.45
2023-05-17T01:13:04.164Z,1.25
2023-05-17T01:14:19.786Z,1.83
2023-05-17T01:15:26.612Z,1.58
2023-05-17T01:16:34.474Z,1.50
2023-05-17T01:17:41.714Z,1.80
2023-05-17T01:18:49.833Z,1.70
2023-05-17T01:20:02.095Z,1.50
2023-05-17T01:21:18.790Z,1.45
2023-05-17T01:22:31.643Z,1.40
2023-05-17T01:23:46.239Z,1.30
2023-05-17T01:24:58.425Z,1.17
2023-05-17T01:26:09.196Z,1.70
2023-05-17T01:27:15.396Z,2.00
2023-05-17T01:28:19.207Z,1.48
2023-05-17T01:29:25.824Z,2.15
2023-05-17T01:30:30.657Z,1.40
2023-05-17T01:31:33.116Z,1.83
2023-05-17T01:32:36.361Z,1.70
2023-05-17T01:33:39.530Z,1.80
2023-05-17T01:34:43.001Z,1.67
2023-05-17T01:35:45.010Z,1.30
2023-05-17T01:36:47.845Z,2.08
2023-05-17T01:37:50.025Z,1.50
2023-05-17T01:38:53.162Z,1.20
2023-05-17T01:39:55.079Z,1.25
2023-05-17T01:41:06.433Z,1.27
2023-05-17T01:42:20.846Z,1.40
2023-05-17T01:43:27.668Z,1.48
2023-05-17T01:44:37.571Z,1.30
2023-05-17T01:45:45.357Z,1.70
2023-05-17T01:46:47.997Z,1.52
2023-05-17T01:47:57.080Z,1.48
2023-05-17T01:49:09.209Z,1.73
2023-05-17T01:50:15.641Z,1.40
2023-05-17T01:51:19.842Z,1.50
2023-05-17T01:52:29.462Z,1.30
2023-05-17T01:53:38.122Z,1.27
2023-05-17T01:54:48.467Z,1.48
2023-05-17T01:55:51.664Z,1.30
2023-05-17T01:56:58.992Z,1.40
2023-05-17T01:58:06.268Z,1.00
2023-05-17T01:59:10.639Z,1.20
2023-05-17T02:00:14.268Z,1.50
2023-05-17T02:01:19.771Z,1.10
2023-05-17T02:02:22.581Z,1.20
2023-05-17T02:03:25.738Z,0.88
2023-05-17T02:04:27.742Z,1.02
2023-05-17T02:05:31.067Z,1.67
2023-05-17T02:06:32.978Z,1.25
2023-05-17T02:07:35.834Z,1.10
2023-05-17T02:08:38.017Z,1.25
2023-05-17T02:09:40.855Z,1.40
2023-05-17T02:10:42.786Z,1.30
2023-05-17T02:11:45.699Z,1.98
2023-05-17T02:12:47.603Z,1.45
2023-05-17T02:13:51.796Z,1.30
2023-05-17T02:14:54.634Z,1.20
2023-05-17T02:16:00.495Z,1.05
2023-05-17T02:17:06.037Z,0.95
2023-05-17T02:18:08.127Z,1.38
2023-05-17T02:19:13.026Z,1.25
2023-05-17T02:20:15.036Z,1.40
2023-05-17T02:21:18.524Z,1.40
2023-05-17T02:22:20.424Z,1.20
2023-05-17T02:23:24.966Z,1.35
2023-05-17T02:24:26.981Z,1.10
2023-05-17T02:25:30.139Z,1.10
2023-05-17T02:26:32.372Z,1.50
2023-05-17T02:27:35.596Z,1.30
2023-05-17T02:28:37.524Z,1.08
2023-05-17T02:29:41.660Z,1.45
2023-05-17T02:30:44.477Z,1.10
2023-05-17T02:31:47.336Z,1.45
2023-05-17T02:32:49.393Z,1.15
2023-05-17T02:33:52.342Z,0.95
2023-05-17T02:34:54.300Z,0.77
2023-05-17T02:35:57.110Z,1.38
2023-05-17T02:36:58.997Z,1.00
2023-05-17T02:38:02.583Z,1.10
2023-05-17T02:39:04.559Z,1.35
2023-05-17T02:40:09.815Z,0.90
2023-05-17T02:41:11.701Z,1.35
2023-05-17T02:42:15.417Z,1.30
2023-05-17T02:43:17.304Z,0.88
2023-05-17T02:44:20.126Z,1.17
2023-05-17T02:45:23.339Z,1.70
2023-05-17T02:46:26.136Z,1.38
2023-05-17T02:47:28.118Z,1.40
2023-05-17T02:48:31.073Z,0.80
2023-05-17T02:49:32.947Z,1.42
2023-05-17T02:50:35.782Z,0.98
2023-05-17T02:51:37.661Z,1.23
2023-05-17T02:52:40.736Z,1.25
2023-05-17T02:53:42.625Z,1.05
2023-05-17T02:54:45.490Z,1.30
2023-05-17T02:55:47.592Z,1.58
2023-05-17T02:56:50.537Z,1.10
2023-05-17T02:57:52.492Z,1.00
2023-05-17T02:58:57.482Z,1.27
2023-05-17T02:59:59.337Z,1.13
2023-05-17T03:01:03.512Z,1.10
2023-05-17T03:02:05.709Z,1.40
2023-05-17T03:03:08.767Z,1.15
2023-05-17T03:04:10.841Z,1.30
2023-05-17T03:05:13.930Z,0.68
2023-05-17T03:06:15.871Z,1.15
2023-05-17T03:07:18.739Z,1.20
2023-05-17T03:08:20.920Z,1.27
2023-05-17T03:09:24.060Z,1.55
2023-05-17T03:10:25.896Z,0.90
2023-05-17T03:11:28.699Z,1.10
2023-05-17T03:12:30.566Z,1.00
2023-05-17T03:13:33.425Z,1.25
2023-05-17T03:14:35.389Z,0.98
2023-05-17T03:15:38.202Z,1.40
2023-05-17T03:16:41.521Z,1.00
2023-05-17T03:17:44.524Z,1.45
2023-05-17T03:18:46.597Z,1.10
2023-05-17T03:19:49.703Z,1.13
2023-05-17T03:20:51.685Z,1.40
2023-05-17T03:21:54.574Z,1.40
2023-05-17T03:22:56.517Z,1.30
2023-05-17T03:23:59.360Z,1.13
2023-05-17T03:25:01.356Z,1.38
2023-05-17T03:26:04.248Z,0.77
2023-05-17T03:27:06.524Z,2.20
2023-05-17T03:28:09.433Z,1.33
2023-05-17T03:29:11.712Z,1.48
2023-05-17T03:30:14.896Z,0.82
2023-05-17T03:31:17.456Z,0.90
2023-05-17T03:32:21.658Z,0.90
2023-05-17T03:33:23.554Z,0.85
2023-05-17T03:34:26.760Z,1.48
2023-05-17T03:35:28.784Z,1.50
2023-05-17T03:36:34.085Z,1.00
2023-05-17T03:37:35.940Z,1.23
2023-05-17T03:38:38.735Z,1.30
2023-05-17T03:39:40.622Z,0.88
2023-05-17T03:40:43.578Z,0.90
2023-05-17T03:41:45.586Z,1.20
2023-05-17T03:42:48.505Z,1.10
2023-05-17T03:43:50.397Z,0.80
2023-05-17T03:44:53.293Z,1.25
2023-05-17T03:45:55.173Z,1.00
2023-05-17T03:46:58.002Z,0.95
2023-05-17T03:48:01.273Z,0.80
2023-05-17T03:49:04.247Z,0.95
2023-05-17T03:50:07.680Z,1.42
2023-05-17T03:51:10.686Z,1.40
2023-05-17T03:52:12.602Z,1.10
2023-05-17T03:53:15.500Z,1.10
2023-05-17T03:54:17.414Z,1.08
2023-05-17T03:55:20.276Z,1.08
2023-05-17T03:56:22.186Z,1.42
2023-05-17T03:57:25.088Z,1.00
2023-05-17T03:58:26.915Z,1.00
2023-05-17T03:59:29.753Z,1.00
2023-05-17T04:00:31.585Z,0.95
2023-05-17T04:01:34.897Z,0.85
2023-05-17T04:02:36.793Z,1.05
2023-05-17T04:03:41.005Z,0.93
2023-05-17T04:04:49.275Z,1.00
2023-05-17T04:05:52.133Z,0.95
2023-05-17T04:06:54.111Z,1.13
2023-05-17T04:07:57.042Z,1.27
2023-05-17T04:08:59.725Z,0.85
2023-05-17T04:10:02.917Z,0.90
2023-05-17T04:11:10.410Z,1.10
2023-05-17T04:12:13.437Z,1.27
2023-05-17T04:13:15.330Z,0.88
2023-05-17T04:14:19.010Z,1.02
2023-05-17T04:15:21.901Z,1.15
2023-05-17T04:16:24.918Z,0.98
2023-05-17T04:17:26.885Z,0.93
2023-05-17T04:18:29.961Z,0.90
2023-05-17T04:19:34.293Z,0.90
2023-05-17T04:20:37.533Z,1.17
2023-05-17T04:21:39.429Z,1.25
2023-05-17T04:22:42.988Z,0.90
2023-05-17T04:23:44.850Z,0.85
2023-05-17T04:24:47.849Z,0.77
2023-05-17T04:25:49.745Z,1.02
2023-05-17T04:26:52.571Z,1.00
2023-05-17T04:27:55.032Z,0.90
2023-05-17T04:28:57.817Z,1.23
2023-05-17T04:29:59.636Z,0.90
2023-05-17T04:31:02.473Z,0.93
2023-05-17T04:32:04.967Z,0.73
2023-05-17T04:33:07.827Z,1.35
2023-05-17T04:34:09.908Z,0.90
2023-05-17T04:35:14.467Z,1.08
2023-05-17T04:36:17.588Z,0.80
2023-05-17T04:37:20.729Z,1.00
2023-05-17T04:38:23.586Z,1.00
2023-05-17T04:39:27.222Z,1.13
2023-05-17T04:40:29.652Z,1.52
2023-05-17T04:41:33.180Z,0.70
2023-05-17T04:42:35.035Z,0.90
2023-05-17T04:43:38.196Z,1.23
2023-05-17T04:44:40.162Z,0.93
2023-05-17T04:45:43.848Z,1.10
2023-05-17T04:46:46.860Z,1.05
2023-05-17T04:47:50.355Z,0.93
2023-05-17T04:48:53.426Z,1.10
2023-05-17T04:49:57.061Z,1.05
2023-05-17T04:51:02.371Z,1.05
2023-05-17T04:52:06.264Z,1.40
2023-05-17T04:53:08.745Z,0.80
2023-05-17T04:54:11.739Z,1.55
2023-05-17T04:55:13.801Z,1.08
2023-05-17T04:56:16.664Z,1.30
2023-05-17T04:57:19.651Z,1.35
2023-05-17T04:58:24.119Z,1.15
2023-05-17T04:59:25.960Z,1.00
2023-05-17T05:00:28.796Z,0.70
2023-05-17T05:01:31.061Z,1.20
2023-05-17T05:02:33.972Z,1.10
2023-05-17T05:03:36.682Z,0.90
2023-05-17T05:04:39.529Z,1.50
2023-05-17T05:05:41.559Z,0.80
2023-05-17T05:06:45.734Z,1.67
2023-05-17T05:07:47.572Z,1.00
2023-05-17T05:08:50.424Z,1.88
2023-05-17T05:09:52.431Z,1.63
2023-05-17T05:10:55.240Z,0.70
2023-05-17T05:11:57.142Z,0.93
2023-05-17T05:13:00.006Z,1.30
2023-05-17T05:14:01.926Z,1.30
2023-05-17T05:15:05.325Z,0.90
2023-05-17T05:16:08.095Z,1.70
2023-05-17T05:17:11.188Z,1.15
2023-05-17T05:18:13.132Z,0.90
2023-05-17T05:19:16.721Z,1.45
2023-05-17T05:20:18.977Z,1.42
2023-05-17T05:21:21.782Z,1.50
2023-05-17T05:22:25.096Z,0.90
2023-05-17T05:23:27.942Z,0.80
2023-05-17T05:24:29.827Z,2.03
2023-05-17T05:25:32.734Z,0.95
2023-05-17T05:26:34.603Z,1.27
2023-05-17T05:27:37.509Z,1.10
2023-05-17T05:28:40.404Z,1.25
2023-05-17T05:29:42.588Z,1.40
2023-05-17T05:30:45.561Z,0.90
2023-05-17T05:31:47.845Z,0.77
2023-05-17T05:32:50.933Z,0.90
2023-05-17T05:33:53.905Z,0.90
2023-05-17T05:34:57.098Z,1.00
2023-05-17T05:36:00.083Z,1.10
2023-05-17T05:37:03.978Z,1.33
2023-05-17T05:38:08.524Z,1.20
2023-05-17T05:39:10.668Z,1.52
2023-05-17T05:40:15.000Z,0.80
2023-05-17T05:41:16.878Z,1.27
2023-05-17T05:42:19.684Z,1.02
2023-05-17T05:43:21.547Z,1.63
2023-05-17T05:44:25.945Z,1.05
2023-05-17T05:45:27.952Z,1.38
2023-05-17T05:46:30.802Z,0.95
2023-05-17T05:47:32.975Z,1.30
2023-05-17T05:48:39.288Z,1.05
2023-05-17T05:49:41.349Z,1.10
2023-05-17T05:50:45.475Z,1.98
2023-05-17T05:51:48.381Z,1.08
2023-05-17T05:52:50.245Z,1.10
2023-05-17T05:53:54.485Z,1.20
2023-05-17T05:54:56.350Z,0.68
2023-05-17T05:55:59.201Z,1.00
2023-05-17T05:57:01.070Z,1.60
2023-05-17T05:58:03.869Z,1.42
2023-05-17T05:59:07.834Z,1.10
2023-05-17T06:00:12.688Z,1.20
2023-05-17T06:01:14.624Z,1.30
2023-05-17T06:02:17.906Z,1.55
2023-05-17T06:03:19.761Z,1.38
2023-05-17T06:04:29.769Z,1.20
2023-05-17T06:05:40.359Z,0.98
2023-05-17T06:06:43.553Z,1.25
2023-05-17T06:07:45.704Z,1.15
2023-05-17T06:08:48.589Z,1.58
2023-05-17T06:09:52.773Z,1.20
2023-05-17T06:10:54.615Z,1.70
2023-05-17T06:11:57.461Z,1.40
2023-05-17T06:13:00.380Z,1.10
2023-05-17T06:14:02.260Z,1.55
2023-05-17T06:15:05.885Z,1.30
2023-05-17T06:16:08.771Z,1.40
2023-05-17T06:17:10.672Z,1.23
2023-05-17T06:18:13.567Z,1.10
2023-05-17T06:19:15.711Z,1.98
2023-05-17T06:20:18.658Z,1.35
2023-05-17T06:21:20.511Z,1.30
2023-05-17T06:22:23.309Z,1.50
2023-05-17T06:23:25.837Z,1.65
2023-05-17T06:24:28.699Z,1.83
2023-05-17T06:25:32.137Z,1.60
2023-05-17T06:26:35.737Z,1.55
2023-05-17T06:27:37.806Z,1.20
2023-05-17T06:28:40.731Z,1.80
2023-05-17T06:29:42.781Z,1.40
2023-05-17T06:30:46.511Z,1.90
2023-05-17T06:31:51.050Z,1.00
2023-05-17T06:32:53.883Z,1.30
2023-05-17T06:33:55.865Z,1.25
2023-05-17T06:34:59.153Z,1.00
2023-05-17T06:36:03.918Z,1.15
2023-05-17T06:37:06.802Z,1.10
2023-05-17T06:38:08.648Z,1.00
2023-05-17T06:39:11.832Z,1.00
2023-05-17T06:40:16.475Z,1.48
2023-05-17T06:41:20.359Z,0.90
2023-05-17T06:42:23.156Z,1.10
2023-05-17T06:43:25.217Z,1.55
2023-05-17T06:44:28.064Z,1.70
2023-05-17T06:45:31.226Z,2.38
2023-05-17T06:46:33.121Z,1.60
2023-05-17T06:47:35.985Z,1.67
2023-05-17T06:48:38.094Z,1.60
2023-05-17T06:49:41.146Z,2.03
2023-05-17T06:50:44.047Z,1.92
2023-05-17T06:51:48.762Z,1.55
2023-05-17T06:52:50.715Z,1.30
2023-05-17T06:53:55.526Z,1.33
2023-05-17T06:54:57.395Z,2.00
2023-05-17T06:56:00.277Z,1.60
2023-05-17T06:57:04.036Z,1.63
2023-05-17T06:58:06.829Z,1.42
2023-05-17T06:59:09.797Z,2.55
2023-05-17T07:00:13.029Z,1.45
2023-05-17T07:01:16.562Z,1.85
2023-05-17T07:02:18.664Z,1.88
2023-05-17T07:03:21.562Z,2.45
2023-05-17T07:04:24.451Z,1.65
2023-05-17T07:05:28.916Z,1.80
2023-05-17T07:06:32.232Z,1.75
2023-05-17T07:07:34.072Z,1.50
2023-05-17T07:08:36.894Z,1.63
2023-05-17T07:09:39.085Z,1.60
2023-05-17T07:10:41.944Z,2.15
2023-05-17T07:11:43.838Z,1.80
2023-05-17T07:12:48.355Z,1.55
2023-05-17T07:13:53.613Z,2.13
2023-05-17T07:14:56.475Z,2.25
2023-05-17T07:16:00.628Z,1.60
2023-05-17T07:17:03.456Z,2.22
2023-05-17T07:18:06.455Z,1.90
2023-05-17T07:19:10.540Z,1.33
2023-05-17T07:20:13.809Z,2.20
2023-05-17T07:21:16.684Z,2.40
2023-05-17T07:22:18.726Z,2.10
2023-05-17T07:23:21.581Z,2.10
2023-05-17T07:24:24.442Z,2.03
2023-05-17T07:25:26.554Z,2.20
2023-05-17T07:26:29.463Z,2.00
2023-05-17T07:27:32.307Z,2.45
2023-05-17T07:28:35.495Z,2.25
2023-05-17T07:29:38.341Z,2.22
2023-05-17T07:30:46.782Z,2.10
2023-05-17T07:31:49.618Z,2.10
2023-05-17T07:32:51.810Z,1.73
2023-05-17T07:33:54.696Z,2.60
2023-05-17T07:34:57.540Z,2.10
2023-05-17T07:35:59.511Z,2.55
2023-05-17T07:37:02.427Z,2.17
2023-05-17T07:38:04.332Z,2.50
2023-05-17T07:39:08.876Z,2.63
2023-05-17T07:40:11.724Z,2.63
2023-05-17T07:41:17.126Z,2.50
2023-05-17T07:42:19.082Z,2.67
2023-05-17T07:43:21.987Z,2.63
2023-05-17T07:44:28.741Z,2.10
2023-05-17T07:45:31.757Z,2.35
2023-05-17T07:46:33.836Z,2.33
2023-05-17T07:47:36.920Z,2.92
2023-05-17T07:48:38.934Z,3.13
2023-05-17T07:49:42.009Z,2.55
2023-05-17T07:50:46.618Z,2.88
2023-05-17T07:51:49.451Z,2.92
2023-05-17T07:52:52.855Z,2.97
2023-05-17T07:53:55.725Z,2.20
2023-05-17T07:54:57.640Z,3.15
2023-05-17T07:56:00.505Z,2.15
2023-05-17T07:57:03.463Z,2.38
2023-05-17T07:58:06.303Z,2.53
2023-05-17T07:59:09.110Z,2.58
2023-05-17T08:00:14.470Z,3.00
2023-05-17T08:01:16.548Z,2.38
2023-05-17T08:02:19.409Z,2.45
2023-05-17T08:03:22.565Z,2.70
2023-05-17T08:04:24.603Z,2.38
2023-05-17T08:05:27.886Z,2.17
2023-05-17T08:06:31.268Z,3.15
2023-05-17T08:07:34.200Z,2.33
2023-05-17T08:08:37.058Z,2.40
2023-05-17T08:09:40.223Z,3.25
2023-05-17T08:10:43.273Z,2.95
2023-05-17T08:11:46.840Z,2.50
2023-05-17T08:12:49.693Z,2.67
2023-05-17T08:13:52.496Z,2.30
2023-05-17T08:14:54.435Z,2.50
2023-05-17T08:16:12.896Z,2.10
2023-05-17T08:17:17.323Z,2.17
2023-05-17T08:18:19.370Z,2.72
2023-05-17T08:19:22.841Z,2.33
2023-05-17T08:20:25.739Z,2.70
2023-05-17T08:21:27.615Z,2.63
2023-05-17T08:22:30.608Z,2.17
2023-05-17T08:23:32.949Z,2.50
2023-05-17T08:24:35.904Z,2.35
2023-05-17T08:25:38.760Z,2.45
2023-05-17T08:26:42.265Z,1.90
2023-05-17T08:27:45.093Z,2.90
2023-05-17T08:28:46.969Z,2.20
2023-05-17T08:29:51.714Z,2.63
2023-05-17T08:30:53.711Z,2.30
2023-05-17T08:31:57.901Z,2.42
2023-05-17T08:33:00.613Z,2.55
2023-05-17T08:34:03.617Z,2.80
2023-05-17T08:35:07.228Z,2.00
2023-05-17T08:36:10.134Z,2.83
2023-05-17T08:37:12.406Z,2.83
2023-05-17T08:38:16.051Z,2.08
2023-05-17T08:39:20.446Z,2.88
2023-05-17T08:40:23.602Z,2.85
2023-05-17T08:41:27.394Z,2.97
2023-05-17T08:42:30.339Z,2.90
2023-05-17T08:43:33.225Z,2.50
2023-05-17T08:44:36.413Z,2.90
2023-05-17T08:45:39.805Z,2.30
2023-05-17T08:46:43.946Z,2.85
2023-05-17T08:47:47.297Z,3.38
2023-05-17T08:48:52.015Z,3.40
2023-05-17T08:49:57.714Z,3.10
2023-05-17T08:51:00.922Z,2.60
2023-05-17T08:52:09.688Z,2.75
2023-05-17T08:53:13.919Z,2.30
2023-05-17T08:54:15.967Z,2.58
2023-05-17T08:55:19.122Z,2.88
2023-05-17T08:56:23.321Z,2.53
2023-05-17T08:57:29.763Z,2.47
2023-05-17T08:58:48.192Z,2.30
2023-05-17T09:00:00.357Z,2.90
2023-05-17T09:01:02.773Z,2.30
2023-05-17T09:02:07.393Z,2.25
2023-05-17T09:03:15.852Z,2.55
2023-05-17T09:04:18.890Z,2.75
2023-05-17T09:05:21.883Z,3.05
2023-05-17T09:06:24.392Z,3.00
2023-05-17T09:07:27.263Z,2.97
2023-05-17T09:08:30.155Z,2.25
2023-05-17T09:09:34.063Z,2.95
2023-05-17T09:10:35.905Z,2.90
2023-05-17T09:11:38.890Z,2.25
2023-05-17T09:12:42.310Z,2.90
2023-05-17T09:13:44.491Z,3.00
2023-05-17T09:14:47.451Z,3.17
2023-05-17T09:15:49.687Z,3.08
2023-05-17T09:16:58.363Z,2.72
2023-05-17T09:18:01.940Z,2.05
2023-05-17T09:19:09.910Z,3.55
2023-05-17T09:20:11.969Z,2.67
2023-05-17T09:21:14.940Z,2.30
2023-05-17T09:22:20.462Z,2.80
2023-05-17T09:23:22.358Z,2.45
2023-05-17T09:24:30.088Z,3.10
2023-05-17T09:25:32.315Z,3.15
2023-05-17T09:26:43.017Z,2.33
2023-05-17T09:27:45.205Z,2.67
2023-05-17T09:28:48.397Z,2.65
2023-05-17T09:29:50.344Z,2.80
2023-05-17T09:30:53.292Z,3.28
2023-05-17T09:31:55.282Z,2.30
2023-05-17T09:32:58.615Z,2.60
2023-05-17T09:34:02.241Z,3.00
2023-05-17T09:35:08.508Z,3.15
2023-05-17T09:36:17.200Z,2.40
2023-05-17T09:37:20.933Z,2.65
2023-05-17T09:38:27.010Z,3.00
2023-05-17T09:39:29.899Z,2.72
2023-05-17T09:40:31.793Z,2.95
2023-05-17T09:41:41.812Z,3.45
2023-05-17T09:42:47.879Z,2.50
2023-05-17T09:43:50.833Z,3.15
2023-05-17T09:44:57.542Z,3.00
2023-05-17T09:45:59.861Z,2.78
2023-05-17T09:47:02.722Z,3.50
2023-05-17T09:48:13.984Z,3.00
2023-05-17T09:49:18.713Z,3.03
2023-05-17T09:50:25.314Z,2.85
2023-05-17T09:51:36.490Z,3.65
2023-05-17T09:52:40.036Z,3.20
2023-05-17T09:53:42.877Z,2.97
2023-05-17T09:54:52.642Z,2.80
2023-05-17T09:55:58.468Z,2.53
2023-05-17T09:57:07.596Z,2.13
2023-05-17T09:58:10.456Z,2.67
2023-05-17T09:59:15.075Z,2.90
2023-05-17T10:00:19.577Z,2.63
2023-05-17T10:01:25.203Z,2.95
2023-05-17T10:02:31.027Z,2.63
2023-05-17T10:03:35.796Z,3.20
2023-05-17T10:04:38.588Z,2.33
2023-05-17T10:05:45.831Z,2.92
2023-05-17T10:06:51.942Z,2.92
2023-05-17T10:07:57.485Z,2.63
2023-05-17T10:09:01.652Z,2.60
2023-05-17T10:10:05.649Z,2.70
2023-05-17T10:11:10.596Z,2.33
2023-05-17T10:12:15.925Z,2.60
2023-05-17T10:13:24.773Z,2.85
2023-05-17T10:14:31.882Z,2.90
2023-05-17T10:15:35.147Z,2.67
2023-05-17T10:16:39.032Z,3.17
2023-05-17T10:17:45.365Z,2.40
2023-05-17T10:18:49.463Z,2.80
2023-05-17T10:19:53.167Z,3.15
2023-05-17T10:20:57.274Z,2.90
2023-05-17T10:22:11.427Z,2.78
2023-05-17T10:23:25.265Z,3.20
2023-05-17T10:24:30.594Z,3.20
2023-05-17T10:25:34.287Z,3.28
2023-05-17T10:26:36.996Z,3.03
2023-05-17T10:27:40.284Z,3.75
2023-05-17T10:28:44.121Z,3.25
2023-05-17T10:29:49.940Z,2.65
2023-05-17T10:30:55.451Z,2.50
2023-05-17T10:31:59.802Z,2.97
2023-05-17T10:33:04.538Z,2.40
2023-05-17T10:34:06.688Z,3.05
2023-05-17T10:35:12.166Z,3.20
2023-05-17T10:36:17.814Z,2.80
2023-05-17T10:37:22.444Z,2.60
2023-05-17T10:38:32.050Z,3.33
2023-05-17T10:39:38.826Z,2.63
2023-05-17T10:40:42.583Z,3.05
2023-05-17T10:41:48.784Z,2.30
2023-05-17T10:42:52.451Z,2.47
2023-05-17T10:43:56.335Z,2.78
2023-05-17T10:45:00.447Z,2.17
2023-05-17T10:46:04.337Z,2.90
2023-05-17T10:47:08.800Z,2.17
2023-05-17T10:48:11.485Z,3.10
2023-05-17T10:49:14.688Z,2.65
2023-05-17T10:50:23.631Z,2.88
2023-05-17T10:51:31.370Z,3.15
2023-05-17T10:52:33.345Z,2.50
2023-05-17T10:54:05.753Z,2.97
2023-05-17T10:55:09.677Z,2.40
2023-05-17T10:56:12.510Z,2.45
2023-05-17T10:57:21.595Z,2.63
2023-05-17T10:58:29.628Z,2.42
2023-05-17T10:59:32.112Z,2.70
2023-05-17T11:00:40.005Z,2.50
2023-05-17T11:01:53.372Z,2.22
2023-05-17T11:03:13.891Z,3.08
2023-05-17T11:04:25.887Z,2.88
2023-05-17T11:05:28.577Z,2.70
2023-05-17T11:06:38.189Z,3.22
2023-05-17T11:07:42.238Z,3.30
2023-05-17T11:08:49.563Z,2.78
2023-05-17T11:09:53.423Z,3.05
2023-05-17T11:11:10.377Z,2.40
2023-05-17T11:12:14.463Z,2.85
2023-05-17T11:13:26.236Z,2.75
2023-05-17T11:14:31.093Z,2.80
2023-05-17T11:15:34.795Z,2.70
2023-05-17T11:16:38.003Z,2.10
2023-05-17T11:17:56.803Z,2.20
2023-05-17T11:19:08.472Z,2.60
2023-05-17T11:20:32.322Z,2.30
2023-05-17T11:21:37.307Z,3.10
2023-05-17T11:22:40.616Z,2.55
2023-05-17T11:23:45.313Z,2.80
2023-05-17T11:24:51.649Z,3.45
2023-05-17T11:25:55.098Z,2.45
2023-05-17T11:27:00.208Z,2.42
2023-05-17T11:28:09.261Z,2.70
2023-05-17T11:29:12.219Z,2.58
2023-05-17T11:30:19.844Z,2.53
2023-05-17T11:31:31.704Z,2.50
2023-05-17T11:32:33.903Z,2.53
2023-05-17T11:33:40.522Z,2.65
2023-05-17T11:34:42.475Z,2.58
2023-05-17T11:35:45.704Z,2.90
2023-05-17T11:36:54.233Z,3.45
2023-05-17T11:38:17.354Z,2.28
2023-05-17T11:39:24.043Z,2.70
2023-05-17T11:40:28.149Z,3.08
2023-05-17T11:41:31.455Z,2.30
2023-05-17T11:42:34.811Z,1.95
2023-05-17T11:43:37.719Z,2.55
2023-05-17T11:44:42.401Z,2.47
2023-05-17T11:45:50.017Z,2.90
2023-05-17T11:47:02.865Z,2.88
2023-05-17T11:48:06.132Z,3.17
2023-05-17T11:49:10.179Z,2.72
2023-05-17T11:50:15.051Z,3.20
2023-05-17T11:51:17.880Z,2.50
2023-05-17T11:52:22.497Z,2.40
2023-05-17T11:53:27.333Z,2.60
2023-05-17T11:54:32.059Z,2.85
2023-05-17T11:55:37.849Z,2.35
2023-05-17T11:56:43.128Z,2.58
2023-05-17T11:57:47.009Z,2.25
2023-05-17T11:58:52.865Z,2.65
2023-05-17T12:00:00.715Z,3.20
2023-05-17T12:01:03.927Z,2.45
2023-05-17T12:02:07.300Z,2.30
2023-05-17T12:03:20.239Z,2.60
2023-05-17T12:04:26.840Z,2.92
2023-05-17T12:05:28.777Z,2.97
2023-05-17T12:06:32.781Z,3.30
2023-05-17T12:07:37.363Z,2.92
2023-05-17T12:08:40.463Z,3.00
2023-05-17T12:09:45.880Z,2.60
2023-05-17T12:10:51.720Z,2.88
2023-05-17T12:11:56.331Z,2.53
2023-05-17T12:12:58.302Z,2.78
2023-05-17T12:14:01.776Z,2.70
2023-05-17T12:15:04.820Z,2.42
2023-05-17T12:16:13.645Z,3.13
2023-05-17T12:17:25.702Z,2.40
2023-05-17T12:18:36.850Z,2.05
2023-05-17T12:19:40.097Z,2.60
2023-05-17T12:20:58.167Z,2.83
2023-05-17T12:22:08.382Z,2.38
2023-05-17T12:23:11.653Z,2.28
2023-05-17T12:24:15.005Z,3.05
2023-05-17T12:25:20.740Z,2.47
2023-05-17T12:26:24.848Z,3.42
2023-05-17T12:27:27.353Z,3.38
2023-05-17T12:28:30.188Z,2.67
2023-05-17T12:29:33.083Z,2.65
2023-05-17T12:30:35.093Z,3.05
2023-05-17T12:31:41.028Z,3.10
2023-05-17T12:32:43.479Z,2.30
2023-05-17T12:33:48.161Z,2.80
2023-05-17T12:34:51.764Z,3.30
2023-05-17T12:35:53.859Z,2.65
2023-05-17T12:36:57.303Z,2.40
2023-05-17T12:38:00.111Z,2.30
2023-05-17T12:39:08.806Z,2.40
2023-05-17T12:40:12.579Z,2.80
2023-05-17T12:41:16.982Z,2.47
2023-05-17T12:42:19.964Z,2.45
2023-05-17T12:43:24.346Z,2.85
2023-05-17T12:44:27.540Z,2.75
2023-05-17T12:45:29.461Z,2.30
2023-05-17T12:46:33.129Z,3.00
2023-05-17T12:47:35.036Z,2.00
2023-05-17T12:48:38.302Z,2.40
2023-05-17T12:49:41.487Z,2.30
2023-05-17T12:50:45.717Z,2.50
2023-05-17T12:51:49.265Z,2.60
2023-05-17T12:52:51.556Z,2.90
2023-05-17T12:53:56.059Z,3.20
2023-05-17T12:55:03.506Z,2.60
2023-05-17T12:56:06.266Z,2.85
2023-05-17T12:57:14.820Z,2.53
2023-05-17T12:58:17.089Z,2.45
2023-05-17T12:59:21.291Z,2.13
2023-05-17T13:00:23.612Z,2.20
2023-05-17T13:01:26.482Z,3.05
2023-05-17T13:02:28.514Z,2.15
2023-05-17T13:03:32.023Z,2.58
2023-05-17T13:04:37.747Z,2.20
2023-05-17T13:05:41.307Z,2.20
2023-05-17T13:06:45.573Z,2.13
2023-05-17T13:07:48.616Z,2.40
2023-05-17T13:08:58.876Z,2.85
2023-05-17T13:10:03.039Z,2.70
2023-05-17T13:11:09.693Z,2.50
2023-05-17T13:12:12.557Z,2.22
2023-05-17T13:13:20.116Z,2.28
2023-05-17T13:14:37.340Z,2.25
2023-05-17T13:15:39.429Z,2.25
2023-05-17T13:16:42.729Z,2.08
2023-05-17T13:17:50.000Z,2.47
2023-05-17T13:18:53.436Z,2.45
2023-05-17T13:19:57.362Z,2.63
2023-05-17T13:21:00.980Z,1.98
2023-05-17T13:22:03.763Z,2.33
2023-05-17T13:23:07.574Z,1.60
2023-05-17T13:24:10.023Z,2.03
2023-05-17T13:25:15.769Z,2.47
2023-05-17T13:26:19.787Z,2.03
2023-05-17T13:27:21.973Z,1.70
2023-05-17T13:28:25.356Z,1.90
2023-05-17T13:29:39.024Z,1.88
2023-05-17T13:30:45.882Z,2.15
2023-05-17T13:31:48.784Z,2.42
2023-05-17T13:32:52.101Z,2.35
2023-05-17T13:33:55.083Z,1.83
2023-05-17T13:34:57.215Z,2.42
2023-05-17T13:36:00.108Z,2.45
2023-05-17T13:37:03.029Z,2.60
2023-05-17T13:38:04.951Z,3.05
2023-05-17T13:39:07.797Z,1.70
2023-05-17T13:40:10.483Z,2.40
2023-05-17T13:41:15.696Z,2.05
2023-05-17T13:42:17.592Z,2.30
2023-05-17T13:43:20.547Z,2.10
2023-05-17T13:44:23.392Z,1.98
2023-05-17T13:45:26.994Z,2.45
2023-05-17T13:46:28.872Z,1.85
2023-05-17T13:47:32.220Z,2.33
2023-05-17T13:48:34.475Z,2.40
2023-05-17T13:49:37.782Z,1.90
2023-05-17T13:50:39.728Z,2.60
2023-05-17T13:51:42.807Z,1.67
2023-05-17T13:52:44.725Z,2.05
2023-05-17T13:53:47.530Z,2.50
2023-05-17T13:54:49.364Z,2.33
2023-05-17T13:55:52.538Z,2.20
2023-05-17T13:56:57.336Z,2.42
2023-05-17T13:58:00.196Z,2.33
2023-05-17T13:59:03.138Z,2.30
2023-05-17T14:00:06.766Z,2.42
2023-05-17T14:01:09.708Z,2.00
2023-05-17T14:02:11.763Z,2.78
2023-05-17T14:03:14.809Z,2.15
2023-05-17T14:04:16.994Z,2.15
2023-05-17T14:05:20.168Z,2.03
2023-05-17T14:06:23.150Z,2.60
2023-05-17T14:07:25.061Z,2.40
2023-05-17T14:08:27.916Z,2.63
2023-05-17T14:09:32.806Z,2.60
2023-05-17T14:10:35.904Z,2.10
2023-05-17T14:11:38.674Z,2.40
2023-05-17T14:12:43.572Z,2.47